createdAt,value
2018-04-12T00:01:25.979Z,10.20
2018-04-12T00:03:54.402Z,10.10
2018-04-12T00:06:22.843Z,10.10
2018-04-12T00:08:51.986Z,10.10
2018-04-12T00:11:20.361Z,10.10
2018-04-12T00:13:48.725Z,10.10
2018-04-12T00:16:17.128Z,10.20
2018-04-12T00:18:45.488Z,10.20
2018-04-12T00:21:13.850Z,10.20
2018-04-12T00:23:42.254Z,10.20
2018-04-12T00:26:10.635Z,10.20
2018-04-12T00:28:39.005Z,10.20
2018-04-12T00:31:07.380Z,10.20
2018-04-12T00:33:36.652Z,10.20
2018-04-12T00:36:05.073Z,10.20
2018-04-12T00:38:33.444Z,10.10
2018-04-12T00:41:01.798Z,10.10
2018-04-12T00:43:30.213Z,10.00
2018-04-12T00:45:58.581Z,9.90
2018-04-12T00:48:27.047Z,9.80
2018-04-12T00:50:55.399Z,9.80
2018-04-12T00:53:36.603Z,9.60
2018-04-12T00:56:05.725Z,9.60
2018-04-12T00:58:34.087Z,9.50
2018-04-12T01:01:02.473Z,9.60
2018-04-12T01:03:30.911Z,9.50
2018-04-12T01:05:59.444Z,9.50
2018-04-12T01:08:27.792Z,9.50
2018-04-12T01:10:56.920Z,9.50
2018-04-12T01:13:25.287Z,9.50
2018-04-12T01:15:53.626Z,9.50
2018-04-12T01:18:22.817Z,9.50
2018-04-12T01:20:51.188Z,9.50
2018-04-12T01:23:19.584Z,9.50
2018-04-12T01:25:48.066Z,9.50
2018-04-12T01:28:16.505Z,9.50
2018-04-12T01:30:44.848Z,9.50
2018-04-12T01:33:17.126Z,9.40
2018-04-12T01:35:46.315Z,9.40
2018-04-12T01:38:15.446Z,9.40
2018-04-12T01:40:43.956Z,9.40
2018-04-12T01:43:12.343Z,9.40
2018-04-12T01:45:40.702Z,9.40
2018-04-12T01:48:09.189Z,9.40
2018-04-12T01:50:37.541Z,9.40
2018-04-12T01:53:05.923Z,9.40
2018-04-12T01:55:34.298Z,9.40
2018-04-12T01:58:02.679Z,9.50
2018-04-12T02:00:31.020Z,9.40
2018-04-12T02:03:00.151Z,9.40
2018-04-12T02:05:28.544Z,9.40
2018-04-12T02:07:56.897Z,9.40
2018-04-12T02:10:25.262Z,9.40
2018-04-12T02:12:53.652Z,9.40
2018-04-12T02:15:22.066Z,9.30
2018-04-12T02:17:50.435Z,9.30
2018-04-12T02:20:18.804Z,9.30
2018-04-12T02:22:47.229Z,9.30
2018-04-12T02:25:15.544Z,9.30
2018-04-12T02:27:43.923Z,9.20
2018-04-12T02:30:12.394Z,9.20
2018-04-12T02:32:41.557Z,9.20
2018-04-12T02:35:09.927Z,9.20
2018-04-12T02:37:38.289Z,9.20
2018-04-12T02:40:06.677Z,9.10
2018-04-12T02:42:35.045Z,9.10
2018-04-12T02:45:03.491Z,9.10
2018-04-12T02:47:32.624Z,9.10
2018-04-12T02:50:01.150Z,9.10
2018-04-12T02:52:29.492Z,9.10
2018-04-12T02:54:57.991Z,9.10
2018-04-12T02:57:26.451Z,9.10
2018-04-12T02:59:54.789Z,9.10
2018-04-12T03:02:23.916Z,9.00
2018-04-12T03:04:52.264Z,9.00
2018-04-12T03:07:21.387Z,9.00
2018-04-12T03:09:49.736Z,9.00
2018-04-12T03:12:18.900Z,9.00
2018-04-12T03:14:47.253Z,8.90
2018-04-12T03:17:15.588Z,8.90
2018-04-12T03:19:44.023Z,8.80
2018-04-12T03:22:12.363Z,8.80
2018-04-12T03:24:40.731Z,8.80
2018-04-12T03:27:09.863Z,8.80
2018-04-12T03:29:38.273Z,8.80
2018-04-12T03:32:06.723Z,8.80
2018-04-12T03:34:35.131Z,8.80
2018-04-12T03:37:04.168Z,8.80
2018-04-12T03:39:33.367Z,8.80
2018-04-12T03:42:01.756Z,8.70
2018-04-12T03:44:30.117Z,8.70
2018-04-12T03:46:59.336Z,8.70
2018-04-12T03:49:28.672Z,8.70
2018-04-12T03:51:57.099Z,8.70
2018-04-12T03:54:26.232Z,8.70
2018-04-12T03:56:54.818Z,8.70
2018-04-12T03:59:23.159Z,8.70
2018-04-12T04:01:52.293Z,8.70
2018-04-12T04:04:20.679Z,8.70
2018-04-12T04:06:49.045Z,8.70
2018-04-12T04:09:17.529Z,8.70
2018-04-12T04:11:45.897Z,8.70
2018-04-12T04:14:26.151Z,8.60
2018-04-12T04:17:06.536Z,8.60
2018-04-12T04:19:46.735Z,8.60
2018-04-12T04:22:15.312Z,8.60
2018-04-12T04:24:43.653Z,8.50
2018-04-12T04:27:11.991Z,8.50
2018-04-12T04:29:41.123Z,8.50
2018-04-12T04:32:09.482Z,8.50
2018-04-12T04:34:37.882Z,8.50
2018-04-12T04:37:06.248Z,8.40
2018-04-12T04:39:34.693Z,8.50
2018-04-12T04:42:03.060Z,8.50
2018-04-12T04:44:31.430Z,8.50
2018-04-12T04:46:59.884Z,8.40
2018-04-12T04:49:28.236Z,8.40
2018-04-12T04:51:56.639Z,8.40
2018-04-12T04:54:25.024Z,8.40
2018-04-12T04:56:53.367Z,8.40
2018-04-12T04:59:22.482Z,8.40
2018-04-12T05:01:50.904Z,8.30
2018-04-12T05:04:19.246Z,8.40
2018-04-12T05:06:47.597Z,8.40
2018-04-12T05:09:15.997Z,8.40
2018-04-12T05:11:44.503Z,8.40
2018-04-12T05:14:12.903Z,8.40
2018-04-12T05:16:41.314Z,8.40
2018-04-12T05:19:10.496Z,8.40
2018-04-12T05:21:39.039Z,8.40
2018-04-12T05:24:07.434Z,8.40
2018-04-12T05:26:35.787Z,8.40
2018-04-12T05:29:04.130Z,8.40
2018-04-12T05:31:32.561Z,8.40
2018-04-12T05:34:00.902Z,8.40
2018-04-12T05:36:30.052Z,8.40
2018-04-12T05:38:58.403Z,8.40
2018-04-12T05:41:26.777Z,8.40
2018-04-12T05:43:55.150Z,8.40
2018-04-12T05:46:24.377Z,8.50
2018-04-12T05:48:53.457Z,8.50
2018-04-12T05:51:21.852Z,8.50
2018-04-12T05:53:50.229Z,8.50
2018-04-12T05:56:18.595Z,8.50
2018-04-12T05:58:46.987Z,8.50
2018-04-12T06:01:15.583Z,8.50
2018-04-12T06:03:43.949Z,8.60
2018-04-12T06:06:12.286Z,8.60
2018-04-12T06:08:40.668Z,8.60
2018-04-12T06:11:09.041Z,8.70
2018-04-12T06:13:37.381Z,8.80
2018-04-12T06:16:05.772Z,8.90
2018-04-12T06:18:34.297Z,8.90
2018-04-12T06:21:02.806Z,9.00
2018-04-12T06:23:31.519Z,9.00
2018-04-12T06:25:59.922Z,9.10
2018-04-12T06:28:28.299Z,9.10
2018-04-12T06:30:56.663Z,9.10
2018-04-12T06:33:25.009Z,9.00
2018-04-12T06:35:53.383Z,8.90
2018-04-12T06:38:21.883Z,9.00
2018-04-12T06:40:50.225Z,9.00
2018-04-12T06:43:19.346Z,8.90
2018-04-12T06:45:48.418Z,8.90
2018-04-12T06:48:16.848Z,9.00
2018-04-12T06:50:45.178Z,8.90
2018-04-12T06:53:13.533Z,8.90
2018-04-12T06:55:42.797Z,9.00
2018-04-12T06:58:11.127Z,9.00
2018-04-12T07:00:39.488Z,9.10
2018-04-12T07:03:07.949Z,9.10
2018-04-12T07:05:36.350Z,9.20
2018-04-12T07:08:04.899Z,9.30
2018-04-12T07:10:33.244Z,9.40
2018-04-12T07:13:01.588Z,9.50
2018-04-12T07:15:30.682Z,9.70
2018-04-12T07:17:59.836Z,9.80
2018-04-12T07:20:28.893Z,9.70
2018-04-12T07:22:58.024Z,9.90
2018-04-12T07:25:26.365Z,9.80
2018-04-12T07:27:54.774Z,9.90
2018-04-12T07:30:23.127Z,10.00
2018-04-12T07:32:51.517Z,10.00
2018-04-12T07:35:20.639Z,10.00
2018-04-12T07:37:49.100Z,10.00
2018-04-12T07:40:17.477Z,10.20
2018-04-12T07:42:45.886Z,10.40
2018-04-12T07:45:14.409Z,10.60
2018-04-12T07:47:43.535Z,10.80
2018-04-12T07:50:12.552Z,10.80
2018-04-12T07:52:40.912Z,10.80
2018-04-12T07:55:09.362Z,10.90
2018-04-12T07:57:38.494Z,10.90
2018-04-12T08:00:06.900Z,10.90
2018-04-12T08:02:35.390Z,10.80
2018-04-12T08:05:03.738Z,10.90
2018-04-12T08:07:32.118Z,10.90
2018-04-12T08:10:00.494Z,10.90
2018-04-12T08:12:28.882Z,10.80
2018-04-12T08:14:57.243Z,10.70
2018-04-12T08:17:25.659Z,10.60
2018-04-12T08:19:54.031Z,10.60
2018-04-12T08:22:22.409Z,10.50
2018-04-12T08:24:50.792Z,10.60
2018-04-12T08:27:19.966Z,10.60
2018-04-12T08:29:48.304Z,10.50
2018-04-12T08:32:17.457Z,10.60
2018-04-12T08:34:46.024Z,10.60
2018-04-12T08:37:14.396Z,10.60
2018-04-12T08:39:42.850Z,10.60
2018-04-12T08:42:11.222Z,10.70
2018-04-12T08:44:40.354Z,10.90
2018-04-12T08:47:08.734Z,10.90
2018-04-12T08:49:38.126Z,11.30
2018-04-12T08:52:07.357Z,11.40
2018-04-12T08:54:35.771Z,11.40
2018-04-12T08:57:04.139Z,11.50
2018-04-12T08:59:32.521Z,11.60
2018-04-12T09:02:00.986Z,11.80
2018-04-12T09:04:29.361Z,11.80
2018-04-12T09:06:57.750Z,11.80
2018-04-12T09:09:26.123Z,11.90
2018-04-12T09:11:54.516Z,12.00
2018-04-12T09:14:22.901Z,12.00
2018-04-12T09:16:51.281Z,12.00
2018-04-12T09:19:19.660Z,12.10
2018-04-12T09:21:48.177Z,12.10
2018-04-12T09:24:16.650Z,12.20
2018-04-12T09:26:45.079Z,12.20
2018-04-12T09:29:13.435Z,12.20
2018-04-12T09:31:41.845Z,12.30
2018-04-12T09:34:10.195Z,12.30
2018-04-12T09:36:38.564Z,12.40
2018-04-12T09:39:06.930Z,12.50
2018-04-12T09:41:35.464Z,12.50
2018-04-12T09:44:03.840Z,12.60
2018-04-12T09:46:32.212Z,12.60
2018-04-12T09:49:00.614Z,12.70
2018-04-12T09:51:29.010Z,12.80
2018-04-12T09:53:57.453Z,12.90
2018-04-12T09:56:25.816Z,12.90
2018-04-12T09:58:54.206Z,13.00
2018-04-12T10:01:22.608Z,12.90
2018-04-12T10:03:51.679Z,12.80
2018-04-12T10:06:22.962Z,12.80
2018-04-12T10:08:57.032Z,12.70
2018-04-12T10:11:26.138Z,12.60
2018-04-12T10:13:54.513Z,12.60
2018-04-12T10:16:22.916Z,12.50
2018-04-12T10:18:51.295Z,12.50
2018-04-12T10:21:19.687Z,12.60
2018-04-12T10:23:48.038Z,12.60
2018-04-12T10:26:16.469Z,12.50
2018-04-12T10:28:44.951Z,12.50
2018-04-12T10:31:13.300Z,12.50
2018-04-12T10:33:41.653Z,12.60
2018-04-12T10:36:10.112Z,12.60
2018-04-12T10:38:38.461Z,12.60
2018-04-12T10:41:06.828Z,12.60
2018-04-12T10:43:35.203Z,12.70
2018-04-12T10:46:03.546Z,12.70
2018-04-12T10:48:31.933Z,12.70
2018-04-12T10:51:00.306Z,12.80
2018-04-12T10:53:28.688Z,12.70
2018-04-12T10:55:57.044Z,12.70
2018-04-12T10:58:26.197Z,12.70
2018-04-12T11:00:54.648Z,12.80
2018-04-12T11:03:23.065Z,12.80
2018-04-12T11:05:51.423Z,12.90
2018-04-12T11:08:19.772Z,13.20
2018-04-12T11:10:48.162Z,13.40
2018-04-12T11:13:16.503Z,13.60
2018-04-12T11:15:45.663Z,13.80
2018-04-12T11:18:14.057Z,13.90
2018-04-12T11:20:42.516Z,14.00
2018-04-12T11:23:10.896Z,14.10
2018-04-12T11:25:39.391Z,14.30
2018-04-12T11:28:07.840Z,14.50
2018-04-12T11:30:36.204Z,14.60
2018-04-12T11:33:04.719Z,14.80
2018-04-12T11:35:33.086Z,15.10
2018-04-12T11:38:01.471Z,15.30
2018-04-12T11:40:29.837Z,15.30
2018-04-12T11:42:58.229Z,15.50
2018-04-12T11:45:28.691Z,15.50
2018-04-12T11:47:58.172Z,15.60
2018-04-12T11:50:26.739Z,15.60
2018-04-12T11:52:55.131Z,15.80
2018-04-12T11:55:23.499Z,16.10
2018-04-12T11:57:51.868Z,16.40
2018-04-12T12:00:20.270Z,16.80
2018-04-12T12:02:48.647Z,17.50
2018-04-12T12:05:17.043Z,18.40
2018-04-12T12:07:45.425Z,19.20
2018-04-12T12:10:13.785Z,20.10
2018-04-12T12:12:42.140Z,20.90
2018-04-12T12:15:10.511Z,21.50
2018-04-12T12:17:39.944Z,21.90
2018-04-12T12:20:09.318Z,22.70
2018-04-12T12:22:37.747Z,22.70
2018-04-12T12:25:06.125Z,23.00
2018-04-12T12:27:34.472Z,23.10
2018-04-12T12:30:02.827Z,23.10
2018-04-12T12:32:31.979Z,23.20
2018-04-12T12:35:00.340Z,23.20
2018-04-12T12:37:29.030Z,22.70
2018-04-12T12:39:57.370Z,22.40
2018-04-12T12:42:26.508Z,21.60
2018-04-12T12:44:54.858Z,21.50
2018-04-12T12:47:23.253Z,21.10
2018-04-12T12:49:51.647Z,20.80
2018-04-12T12:52:20.100Z,20.90
2018-04-12T12:54:48.511Z,21.20
2018-04-12T12:57:22.881Z,21.60
2018-04-12T12:59:52.023Z,22.50
2018-04-12T13:02:20.856Z,22.50
2018-04-12T13:04:49.304Z,22.90
2018-04-12T13:07:17.988Z,23.30
2018-04-12T13:09:46.479Z,23.10
2018-04-12T13:12:14.846Z,22.80
2018-04-12T13:14:55.879Z,22.40
2018-04-12T13:17:24.398Z,22.50
2018-04-12T13:19:52.800Z,23.00
2018-04-12T13:22:26.956Z,23.50
2018-04-12T13:24:56.080Z,24.20
2018-04-12T13:27:24.437Z,24.20
2018-04-12T13:29:52.796Z,24.30
2018-04-12T13:32:27.787Z,24.30
2018-04-12T13:34:56.273Z,24.20
2018-04-12T13:37:24.698Z,24.20
2018-04-12T13:39:53.056Z,24.30
2018-04-12T13:42:21.780Z,24.60
2018-04-12T13:44:50.920Z,24.90
2018-04-12T13:47:19.292Z,24.90
2018-04-12T13:49:47.868Z,24.70
2018-04-12T13:52:16.343Z,24.80
2018-04-12T13:54:44.695Z,25.00
2018-04-12T13:57:13.114Z,24.90
2018-04-12T13:59:41.486Z,24.90
2018-04-12T14:02:15.626Z,24.90
2018-04-12T14:04:44.163Z,24.70
2018-04-12T14:07:12.607Z,24.40
2018-04-12T14:09:41.023Z,24.20
2018-04-12T14:12:09.386Z,23.90
2018-04-12T14:14:44.372Z,23.50
2018-04-12T14:17:12.845Z,23.50
2018-04-12T14:19:46.891Z,23.00
2018-04-12T14:22:21.144Z,22.80
2018-04-12T14:24:49.540Z,22.70
2018-04-12T14:27:17.958Z,23.10
2018-04-12T14:29:46.366Z,23.60
2018-04-12T14:32:21.507Z,23.80
2018-04-12T14:34:56.707Z,23.90
2018-04-12T14:37:25.066Z,23.90
2018-04-12T14:39:59.191Z,23.70
2018-04-12T14:42:27.726Z,23.60
2018-04-12T14:45:02.574Z,22.70
2018-04-12T14:47:30.986Z,22.70
2018-04-12T14:50:05.324Z,22.50
2018-04-12T14:52:39.517Z,22.40
2018-04-12T14:55:07.896Z,22.20
2018-04-12T14:57:36.320Z,22.10
2018-04-12T15:00:11.538Z,21.90
2018-04-12T15:02:39.938Z,21.90
2018-04-12T15:05:09.352Z,21.60
2018-04-12T15:07:43.713Z,21.60
2018-04-12T15:10:12.108Z,21.50
2018-04-12T15:12:40.472Z,21.40
2018-04-12T15:15:08.852Z,21.40
2018-04-12T15:17:43.076Z,21.40
2018-04-12T15:20:17.277Z,21.20
2018-04-12T15:22:51.428Z,21.20
2018-04-12T15:25:19.902Z,21.00
2018-04-12T15:27:54.322Z,20.80
2018-04-12T15:30:22.686Z,20.80
2018-04-12T15:32:51.065Z,20.70
2018-04-12T15:35:19.419Z,20.70
2018-04-12T15:37:53.869Z,20.70
2018-04-12T15:40:22.266Z,20.60
2018-04-12T15:42:50.707Z,20.40
2018-04-12T15:45:25.165Z,20.30
2018-04-12T15:47:54.418Z,20.10
2018-04-12T15:52:57.448Z,20.00
2018-04-12T15:55:25.939Z,19.90
2018-04-12T15:57:54.294Z,19.90
2018-04-12T16:00:22.650Z,19.80
2018-04-12T16:02:57.019Z,19.70
2018-04-12T16:05:31.184Z,19.60
2018-04-12T16:08:05.458Z,19.60
2018-04-12T16:10:33.845Z,19.50
2018-04-12T16:13:02.199Z,19.30
2018-04-12T16:15:30.584Z,19.20
2018-04-12T16:17:59.003Z,19.10
2018-04-12T16:20:28.117Z,19.00
2018-04-12T16:22:56.503Z,18.90
2018-04-12T16:25:24.895Z,18.90
2018-04-12T16:27:53.501Z,18.80
2018-04-12T16:30:21.959Z,18.80
2018-04-12T16:32:50.417Z,18.70
2018-04-12T16:35:19.020Z,18.70
2018-04-12T16:37:47.380Z,18.70
2018-04-12T16:40:15.866Z,18.50
2018-04-12T16:42:44.221Z,18.40
2018-04-12T16:45:12.587Z,18.40
2018-04-12T16:47:40.951Z,18.30
2018-04-12T16:50:14.906Z,18.30
2018-04-12T16:52:49.848Z,18.20
2018-04-12T16:55:18.271Z,18.20
2018-04-12T16:57:46.664Z,18.20
2018-04-12T17:00:21.567Z,18.10
2018-04-12T17:02:49.967Z,18.10
2018-04-12T17:05:18.396Z,18.10
2018-04-12T17:07:53.554Z,18.00
2018-04-12T17:10:27.674Z,17.90
2018-04-12T17:12:56.843Z,17.90
2018-04-12T17:15:25.244Z,17.80
2018-04-12T17:17:53.703Z,17.80
2018-04-12T17:20:22.893Z,17.70
2018-04-12T17:22:57.084Z,17.60
2018-04-12T17:25:25.532Z,17.60
2018-04-12T17:27:53.933Z,17.60
2018-04-12T17:30:28.236Z,17.50
2018-04-12T17:32:56.677Z,17.50
2018-04-12T17:35:31.936Z,17.40
2018-04-12T17:38:12.128Z,17.40
2018-04-12T17:40:40.620Z,17.40
2018-04-12T17:43:15.334Z,17.30
2018-04-12T17:45:49.647Z,17.30
2018-04-12T17:48:23.769Z,17.30
2018-04-12T17:50:52.128Z,17.30
2018-04-12T17:53:20.482Z,17.30
2018-04-12T17:55:48.976Z,17.20
2018-04-12T17:58:17.343Z,17.20
2018-04-12T18:00:47.355Z,17.20
2018-04-12T18:03:16.504Z,17.10
2018-04-12T18:05:44.989Z,17.10
2018-04-12T18:08:19.239Z,17.10
2018-04-12T18:10:47.587Z,17.00
2018-04-12T18:13:15.974Z,17.00
2018-04-12T18:15:44.335Z,17.00
2018-04-12T18:18:12.750Z,16.90
2018-04-12T18:20:41.192Z,16.90
2018-04-12T18:23:15.720Z,16.90
2018-04-12T18:25:49.987Z,16.90
2018-04-12T18:28:24.195Z,16.80
2018-04-12T18:30:53.317Z,16.80
2018-04-12T18:33:27.682Z,16.70
2018-04-12T18:35:56.048Z,16.70
2018-04-12T18:38:30.439Z,16.70
2018-04-12T18:40:58.954Z,16.60
2018-04-12T18:43:39.130Z,16.60
2018-04-12T18:46:07.571Z,16.60
2018-04-12T18:48:35.964Z,16.50
2018-04-12T18:51:10.140Z,16.50
2018-04-12T18:53:38.527Z,16.50
2018-04-12T18:56:06.943Z,16.50
2018-04-12T18:58:35.553Z,16.40
2018-04-12T19:01:15.676Z,16.40
2018-04-12T19:03:50.035Z,16.50
2018-04-12T19:06:18.472Z,16.40
2018-04-12T19:08:46.779Z,16.40
2018-04-12T19:11:15.484Z,16.40
2018-04-12T19:13:55.808Z,16.40
2018-04-12T19:16:24.412Z,16.40
2018-04-12T19:18:58.435Z,16.40
2018-04-12T19:21:32.434Z,16.30
2018-04-12T19:24:06.690Z,16.30
2018-04-12T19:26:35.848Z,16.30
2018-04-12T19:29:04.225Z,16.30
2018-04-12T19:31:38.461Z,16.30
2018-04-12T19:34:07.310Z,16.30
2018-04-12T19:36:41.647Z,16.30
2018-04-12T19:39:10.356Z,16.30
2018-04-12T19:41:39.592Z,16.30
2018-04-12T19:44:08.234Z,16.30
2018-04-12T19:46:36.620Z,16.30
2018-04-12T19:49:05.003Z,16.30
2018-04-12T19:51:33.473Z,16.30
2018-04-12T19:54:01.886Z,16.30
2018-04-12T19:56:30.616Z,16.30
2018-04-12T19:58:58.956Z,16.20
2018-04-12T20:01:27.485Z,16.20
2018-04-12T20:04:01.733Z,16.20
2018-04-12T20:06:30.997Z,16.20
2018-04-12T20:09:05.172Z,16.20
2018-04-12T20:11:34.335Z,16.20
2018-04-12T20:14:08.600Z,16.20
2018-04-12T20:16:42.944Z,16.20
2018-04-12T20:19:11.551Z,16.10
2018-04-12T20:21:40.440Z,16.10
2018-04-12T20:24:08.950Z,16.10
2018-04-12T20:26:49.141Z,16.10
2018-04-12T20:29:23.503Z,16.10
2018-04-12T20:31:52.035Z,16.10
2018-04-12T20:34:20.756Z,16.00
2018-04-12T20:36:49.119Z,16.00
2018-04-12T20:39:17.639Z,16.00
2018-04-12T20:41:46.031Z,16.00
2018-04-12T20:44:15.561Z,15.90
2018-04-12T20:46:49.720Z,15.90
2018-04-12T20:49:23.968Z,15.90
2018-04-12T20:51:52.347Z,15.90
2018-04-12T20:54:21.319Z,15.90
2018-04-12T20:56:49.673Z,15.90
2018-04-12T20:59:18.379Z,15.90
2018-04-12T21:01:46.891Z,15.90
2018-04-12T21:04:16.088Z,15.90
2018-04-12T21:06:44.456Z,15.80
2018-04-12T21:09:19.079Z,15.90
2018-04-12T21:11:47.632Z,16.00
2018-04-12T21:14:15.976Z,15.90
2018-04-12T21:16:44.341Z,15.90
2018-04-12T21:19:19.429Z,15.80
2018-04-12T21:21:47.804Z,15.80
2018-04-12T21:24:16.332Z,15.80
2018-04-12T21:26:44.903Z,15.80
2018-04-12T21:29:13.423Z,15.80
2018-04-12T21:31:41.791Z,15.80
2018-04-12T21:34:11.066Z,15.80
2018-04-12T21:36:40.015Z,15.70
2018-04-12T21:39:08.371Z,15.80
2018-04-12T21:41:36.720Z,15.80
2018-04-12T21:44:05.117Z,15.80
2018-04-12T21:46:34.660Z,15.80
2018-04-12T21:49:09.222Z,15.80
2018-04-12T21:51:38.420Z,15.80
2018-04-12T21:54:06.954Z,15.80
2018-04-12T21:56:35.379Z,15.90
2018-04-12T21:59:04.025Z,15.90
2018-04-12T22:01:38.117Z,15.90
2018-04-12T22:04:07.500Z,16.00
2018-04-12T22:06:36.123Z,15.90
2018-04-12T22:09:04.673Z,16.00
2018-04-12T22:11:44.660Z,15.90
2018-04-12T22:14:19.115Z,15.90
2018-04-12T22:16:47.767Z,15.90
2018-04-12T22:19:22.657Z,15.90
2018-04-12T22:21:57.054Z,16.00
2018-04-12T22:24:25.552Z,16.10
2018-04-12T22:26:54.288Z,16.10
2018-04-12T22:29:22.758Z,16.20
2018-04-12T22:31:57.040Z,16.10
2018-04-12T22:34:25.613Z,16.10
2018-04-12T22:36:53.987Z,16.10
2018-04-12T22:39:23.261Z,16.00
2018-04-12T22:41:51.730Z,16.00
2018-04-12T22:44:20.486Z,16.00
2018-04-12T22:46:55.161Z,15.90
2018-04-12T22:49:23.837Z,15.90
2018-04-12T22:51:58.696Z,15.80
2018-04-12T22:54:33.014Z,15.80
2018-04-12T22:57:01.414Z,15.70
2018-04-12T22:59:29.961Z,15.70
2018-04-12T23:01:59.559Z,15.60
2018-04-12T23:04:28.299Z,15.50
2018-04-12T23:06:56.971Z,15.50
2018-04-12T23:09:31.200Z,15.40
2018-04-12T23:11:59.611Z,15.40
2018-04-12T23:14:28.822Z,15.30
2018-04-12T23:16:57.620Z,15.30
2018-04-12T23:19:25.976Z,15.20
2018-04-12T23:21:54.356Z,15.20
2018-04-12T23:24:22.735Z,15.20
2018-04-12T23:26:51.124Z,15.10
2018-04-12T23:29:19.596Z,15.00
2018-04-12T23:31:48.761Z,14.80
2018-04-12T23:34:23.165Z,14.70
2018-04-12T23:37:03.312Z,14.80
2018-04-12T23:39:31.699Z,14.70
2018-04-12T23:42:00.104Z,14.70
2018-04-12T23:44:34.087Z,14.70
2018-04-12T23:47:08.511Z,14.70
2018-04-12T23:49:43.573Z,14.70
2018-04-12T23:52:11.924Z,14.70
2018-04-12T23:54:40.328Z,14.60
2018-04-12T23:57:08.695Z,14.70
2018-04-12T23:59:37.795Z,14.70
